createdAt,value
2022-08-01T00:00:44.489Z,2.65
2022-08-01T00:03:17.254Z,2.58
2022-08-01T00:05:46.364Z,2.60
2022-08-01T00:08:15.186Z,2.50
2022-08-01T00:10:46.506Z,2.35
2022-08-01T00:13:17.408Z,2.65
2022-08-01T00:15:54.156Z,2.30
2022-08-01T00:18:27.063Z,2.35
2022-08-01T00:21:04.297Z,2.55
2022-08-01T00:23:32.874Z,2.40
2022-08-01T00:26:01.898Z,2.58
2022-08-01T00:28:29.300Z,2.40
2022-08-01T00:30:56.907Z,2.00
2022-08-01T00:33:24.442Z,2.40
2022-08-01T00:35:51.854Z,2.50
2022-08-01T00:38:19.212Z,1.90
2022-08-01T00:40:46.773Z,2.20
2022-08-01T00:43:14.810Z,2.20
2022-08-01T00:45:43.486Z,2.30
2022-08-01T00:48:11.160Z,2.47
2022-08-01T00:50:39.122Z,2.72
2022-08-01T00:53:08.288Z,2.60
2022-08-01T00:55:37.128Z,2.55
2022-08-01T00:58:06.602Z,2.40
2022-08-01T01:00:52.174Z,2.40
2022-08-01T01:03:43.364Z,2.15
2022-08-01T01:06:38.088Z,2.38
2022-08-01T01:10:05.882Z,2.03
2022-08-01T01:12:50.117Z,2.38
2022-08-01T01:15:47.435Z,2.58
2022-08-01T01:18:33.494Z,2.22
2022-08-01T01:21:19.307Z,2.10
2022-08-01T01:24:27.014Z,2.75
2022-08-01T01:27:39.695Z,2.45
2022-08-01T01:30:09.636Z,2.58
2022-08-01T01:32:44.480Z,2.50
2022-08-01T01:35:25.964Z,2.50
2022-08-01T01:38:06.777Z,2.60
2022-08-01T01:40:35.240Z,2.75
2022-08-01T01:43:02.618Z,2.50
2022-08-01T01:45:31.767Z,3.15
2022-08-01T01:48:02.102Z,2.60
2022-08-01T01:50:30.863Z,2.47
2022-08-01T01:53:00.457Z,2.55
2022-08-01T01:55:29.276Z,2.80
2022-08-01T01:57:58.401Z,2.60
2022-08-01T02:00:26.923Z,2.70
2022-08-01T02:02:57.655Z,2.53
2022-08-01T02:05:27.434Z,2.45
2022-08-01T02:07:59.693Z,2.58
2022-08-01T02:10:30.531Z,2.22
2022-08-01T02:13:00.809Z,2.15
2022-08-01T02:15:31.246Z,2.15
2022-08-01T02:18:00.817Z,2.50
2022-08-01T02:20:31.699Z,2.40
2022-08-01T02:23:09.486Z,2.35
2022-08-01T02:26:09.788Z,2.63
2022-08-01T02:28:58.639Z,2.85
2022-08-01T02:31:27.909Z,2.13
2022-08-01T02:34:11.272Z,2.47
2022-08-01T02:36:41.943Z,2.50
2022-08-01T02:39:17.391Z,2.60
2022-08-01T02:41:49.939Z,2.35
2022-08-01T02:44:40.282Z,2.60
2022-08-01T02:47:08.047Z,2.45
2022-08-01T02:49:46.263Z,2.42
2022-08-01T02:52:17.895Z,2.70
2022-08-01T02:54:47.169Z,2.60
2022-08-01T02:57:16.060Z,2.80
2022-08-01T02:59:47.696Z,2.42
2022-08-01T03:02:18.035Z,2.80
2022-08-01T03:04:46.345Z,2.53
2022-08-01T03:07:15.883Z,2.50
2022-08-01T03:09:47.416Z,2.28
2022-08-01T03:12:25.268Z,2.90
2022-08-01T03:14:55.636Z,2.50
2022-08-01T03:17:30.744Z,3.00
2022-08-01T03:20:00.170Z,2.92
2022-08-01T03:22:30.430Z,2.92
2022-08-01T03:25:00.322Z,2.92
2022-08-01T03:27:28.484Z,2.83
2022-08-01T03:29:58.954Z,3.08
2022-08-01T03:32:28.216Z,2.28
2022-08-01T03:34:55.689Z,2.30
2022-08-01T03:37:54.344Z,2.40
2022-08-01T03:40:42.816Z,2.25
2022-08-01T03:43:49.401Z,2.35
2022-08-01T03:46:30.711Z,2.58
2022-08-01T03:49:06.349Z,2.70
2022-08-01T03:51:35.520Z,2.65
2022-08-01T03:54:05.523Z,2.40
2022-08-01T03:56:35.326Z,2.90
2022-08-01T03:59:04.597Z,3.20
2022-08-01T04:01:34.595Z,3.40
2022-08-01T04:04:02.521Z,3.85
2022-08-01T04:06:31.001Z,3.97
2022-08-01T04:08:59.510Z,3.92
2022-08-01T04:11:28.914Z,4.03
2022-08-01T04:13:58.212Z,4.10
2022-08-01T04:16:26.416Z,4.00
2022-08-01T04:18:53.975Z,3.92
2022-08-01T04:21:30.209Z,3.60
2022-08-01T04:24:07.794Z,3.80
2022-08-01T04:26:38.740Z,3.40
2022-08-01T04:29:09.518Z,3.42
2022-08-01T04:31:40.633Z,3.45
2022-08-01T04:34:11.172Z,3.08
2022-08-01T04:36:43.029Z,4.03
2022-08-01T04:39:12.432Z,3.00
2022-08-01T04:41:40.998Z,2.72
2022-08-01T04:44:09.635Z,2.47
2022-08-01T04:46:38.685Z,2.45
2022-08-01T04:49:12.813Z,2.38
2022-08-01T04:52:01.411Z,2.78
2022-08-01T04:54:31.465Z,2.80
2022-08-01T04:57:00.977Z,2.78
2022-08-01T04:59:41.138Z,2.92
2022-08-01T05:02:19.186Z,2.40
2022-08-01T05:04:47.661Z,2.55
2022-08-01T05:07:16.775Z,2.20
2022-08-01T05:09:46.937Z,2.58
2022-08-01T05:12:14.502Z,2.30
2022-08-01T05:14:42.408Z,2.20
2022-08-01T05:17:10.856Z,1.98
2022-08-01T05:19:40.932Z,3.08
2022-08-01T05:22:10.608Z,1.98
2022-08-01T05:24:40.464Z,2.42
2022-08-01T05:27:09.487Z,2.05
2022-08-01T05:29:44.406Z,2.08
2022-08-01T05:32:12.928Z,2.00
2022-08-01T05:34:40.316Z,2.10
2022-08-01T05:37:08.837Z,2.20
2022-08-01T05:39:36.522Z,2.10
2022-08-01T05:42:05.149Z,2.20
2022-08-01T05:44:33.694Z,2.30
2022-08-01T05:47:01.272Z,2.28
2022-08-01T05:49:28.725Z,2.50
2022-08-01T05:51:56.373Z,2.20
2022-08-01T05:54:23.953Z,2.35
2022-08-01T05:56:53.750Z,2.97
2022-08-01T05:59:22.414Z,2.10
2022-08-01T06:01:50.148Z,1.98
2022-08-01T06:04:17.606Z,2.47
2022-08-01T06:06:45.071Z,2.45
2022-08-01T06:09:12.553Z,1.88
2022-08-01T06:11:40.165Z,2.17
2022-08-01T06:14:07.697Z,2.60
2022-08-01T06:16:36.148Z,2.28
2022-08-01T06:19:03.593Z,2.50
2022-08-01T06:21:31.056Z,2.90
2022-08-01T06:23:58.496Z,2.83
2022-08-01T06:26:25.917Z,2.63
2022-08-01T06:28:56.500Z,2.60
2022-08-01T06:31:24.026Z,2.67
2022-08-01T06:33:51.449Z,2.90
2022-08-01T06:36:19.093Z,2.90
2022-08-01T06:38:46.503Z,2.97
2022-08-01T06:41:13.934Z,3.20
2022-08-01T06:43:41.254Z,2.30
2022-08-01T06:46:09.932Z,3.33
2022-08-01T06:48:40.357Z,2.75
2022-08-01T06:51:12.406Z,2.20
2022-08-01T06:53:40.418Z,2.10
2022-08-01T06:56:09.778Z,2.00
2022-08-01T06:58:38.159Z,2.28
2022-08-01T07:01:08.140Z,2.05
2022-08-01T07:03:53.642Z,2.42
2022-08-01T07:06:25.608Z,2.33
2022-08-01T07:08:56.487Z,2.45
2022-08-01T07:11:25.735Z,2.50
2022-08-01T07:13:53.403Z,2.28
2022-08-01T07:16:21.915Z,2.13
2022-08-01T07:18:50.370Z,1.80
2022-08-01T07:21:40.171Z,1.70
2022-08-01T07:24:12.588Z,2.17
2022-08-01T07:29:47.336Z,2.20
2022-08-01T07:32:15.748Z,2.20
2022-08-01T07:34:45.671Z,2.40
2022-08-01T07:37:13.088Z,2.15
2022-08-01T07:39:40.417Z,2.67
2022-08-01T07:42:08.531Z,2.03
2022-08-01T07:44:37.008Z,2.35
2022-08-01T07:47:06.114Z,2.72
2022-08-01T07:49:40.049Z,2.15
2022-08-01T07:52:09.364Z,2.20
2022-08-01T07:54:39.083Z,2.10
2022-08-01T07:57:06.591Z,2.50
2022-08-01T07:59:34.905Z,2.80
2022-08-01T08:02:02.973Z,2.40
2022-08-01T08:04:32.682Z,2.70
2022-08-01T08:07:00.119Z,3.20
2022-08-01T08:09:29.659Z,2.63
2022-08-01T08:11:57.160Z,2.63
2022-08-01T08:14:32.544Z,2.60
2022-08-01T08:17:02.157Z,2.60
2022-08-01T08:19:37.776Z,2.83
2022-08-01T08:22:10.770Z,3.10
2022-08-01T08:24:45.560Z,2.85
2022-08-01T08:27:15.687Z,3.60
2022-08-01T08:29:43.883Z,3.20
2022-08-01T08:32:12.759Z,4.10
2022-08-01T08:34:40.323Z,3.20
2022-08-01T08:37:09.474Z,3.35
2022-08-01T08:39:41.924Z,2.75
2022-08-01T08:42:12.698Z,3.22
2022-08-01T08:44:44.338Z,2.95
2022-08-01T08:47:20.302Z,3.28
2022-08-01T08:49:52.932Z,3.45
2022-08-01T08:52:23.203Z,2.88
2022-08-01T08:54:52.761Z,3.40
2022-08-01T08:57:22.059Z,3.40
2022-08-01T08:59:52.927Z,3.22
2022-08-01T09:02:22.794Z,2.80
2022-08-01T09:04:51.936Z,3.45
2022-08-01T09:07:20.791Z,3.45
2022-08-01T09:09:50.121Z,3.67
2022-08-01T09:12:21.202Z,2.97
2022-08-01T09:14:51.441Z,5.72
2022-08-01T09:17:18.846Z,4.45
2022-08-01T09:19:54.649Z,3.50
2022-08-01T09:22:25.894Z,4.30
2022-08-01T09:25:11.984Z,4.35
2022-08-01T09:27:46.354Z,4.45
2022-08-01T09:30:23.387Z,3.67
2022-08-01T09:33:06.389Z,3.80
2022-08-01T09:35:55.817Z,4.18
2022-08-01T09:38:28.162Z,4.30
2022-08-01T09:41:01.739Z,3.20
2022-08-01T09:43:32.777Z,3.10
2022-08-01T09:46:12.423Z,3.17
2022-08-01T09:48:56.054Z,3.40
2022-08-01T09:51:59.959Z,3.13
2022-08-01T09:54:34.861Z,3.38
2022-08-01T09:57:18.050Z,3.53
2022-08-01T10:00:00.828Z,3.22
2022-08-01T10:02:44.187Z,2.92
2022-08-01T10:05:18.855Z,3.58
2022-08-01T10:08:02.964Z,2.90
2022-08-01T10:10:37.451Z,3.03
2022-08-01T10:13:06.407Z,2.58
2022-08-01T10:15:38.817Z,3.10
2022-08-01T10:18:16.114Z,3.30
2022-08-01T10:20:45.517Z,3.47
2022-08-01T10:23:13.889Z,3.17
2022-08-01T10:25:47.018Z,3.72
2022-08-01T10:28:24.085Z,3.55
2022-08-01T10:30:53.354Z,2.97
2022-08-01T10:33:50.559Z,3.30
2022-08-01T10:36:13.879Z,3.10
2022-08-01T10:38:41.875Z,3.78
2022-08-01T10:41:10.813Z,3.65
2022-08-01T10:43:38.185Z,3.15
2022-08-01T10:46:06.530Z,3.50
2022-08-01T10:48:45.778Z,3.10
2022-08-01T10:51:17.513Z,3.60
2022-08-01T10:53:55.997Z,3.40
2022-08-01T10:56:26.457Z,3.28
2022-08-01T10:59:06.405Z,3.35
2022-08-01T11:01:44.727Z,3.25
2022-08-01T11:04:17.755Z,3.30
2022-08-01T11:07:25.788Z,3.05
2022-08-01T11:10:24.467Z,3.40
2022-08-01T11:12:52.370Z,2.80
2022-08-01T11:15:29.653Z,2.88
2022-08-01T11:18:03.117Z,2.45
2022-08-01T11:20:42.410Z,2.90
2022-08-01T11:23:17.004Z,2.10
2022-08-01T11:26:05.470Z,2.60
2022-08-01T11:28:36.617Z,2.17
2022-08-01T11:31:11.560Z,2.00
2022-08-01T11:33:46.107Z,1.88
2022-08-01T11:36:15.220Z,2.00
2022-08-01T11:38:59.974Z,2.17
2022-08-01T11:41:37.439Z,2.40
2022-08-01T11:44:11.571Z,2.22
2022-08-01T11:47:15.038Z,2.15
2022-08-01T11:49:56.365Z,1.95
2022-08-01T11:52:41.796Z,2.50
2022-08-01T11:55:11.530Z,1.75
2022-08-01T11:57:39.954Z,1.80
2022-08-01T12:00:18.140Z,1.50
2022-08-01T12:02:48.400Z,1.50
2022-08-01T12:05:21.644Z,1.70
2022-08-01T12:07:54.745Z,2.10
2022-08-01T12:10:47.005Z,1.60
2022-08-01T12:13:23.328Z,1.95
2022-08-01T12:15:56.848Z,1.50
2022-08-01T12:18:29.948Z,1.80
2022-08-01T12:21:08.520Z,1.80
2022-08-01T12:23:43.535Z,1.95
2022-08-01T12:26:32.067Z,2.50
2022-08-01T12:29:04.125Z,2.30
2022-08-01T12:31:51.367Z,2.28
2022-08-01T12:34:38.976Z,1.90
2022-08-01T12:37:07.461Z,2.15
2022-08-01T12:39:40.110Z,2.40
2022-08-01T12:42:12.040Z,2.70
2022-08-01T12:44:47.494Z,2.58
2022-08-01T12:47:16.698Z,2.10
2022-08-01T12:49:49.979Z,2.30
2022-08-01T12:52:26.798Z,2.30
2022-08-01T12:55:34.186Z,2.50
2022-08-01T12:58:37.579Z,2.38
2022-08-01T13:01:59.581Z,2.17
2022-08-01T13:05:04.775Z,2.03
2022-08-01T13:07:54.920Z,2.13
2022-08-01T13:10:45.732Z,2.28
2022-08-01T13:13:53.162Z,2.55
2022-08-01T13:16:49.120Z,2.30
2022-08-01T13:19:20.659Z,2.13
2022-08-01T13:21:59.350Z,2.42
2022-08-01T13:24:33.315Z,1.92
2022-08-01T13:27:07.932Z,2.08
2022-08-01T13:29:48.370Z,2.00
2022-08-01T13:32:32.484Z,1.80
2022-08-01T13:35:10.518Z,1.67
2022-08-01T13:37:40.484Z,1.60
2022-08-01T13:40:11.985Z,1.67
2022-08-01T13:42:39.778Z,1.92
2022-08-01T13:45:14.426Z,1.90
2022-08-01T13:48:12.361Z,2.13
2022-08-01T13:50:33.843Z,1.50
2022-08-01T13:53:01.369Z,1.65
2022-08-01T13:55:34.065Z,1.60
2022-08-01T13:58:03.572Z,1.77
2022-08-01T14:00:31.211Z,1.65
2022-08-01T14:02:58.569Z,1.80
2022-08-01T14:05:25.964Z,1.75
2022-08-01T14:07:56.165Z,1.58
2022-08-01T14:10:25.662Z,1.38
2022-08-01T14:12:56.821Z,1.75
2022-08-01T14:15:38.570Z,1.90
2022-08-01T14:18:10.023Z,1.58
2022-08-01T14:20:40.172Z,1.70
2022-08-01T14:23:08.586Z,1.75
2022-08-01T14:26:03.347Z,1.83
2022-08-01T14:28:31.630Z,1.90
2022-08-01T14:30:59.681Z,2.10
2022-08-01T14:33:28.215Z,2.05
2022-08-01T14:36:01.952Z,2.10
2022-08-01T14:38:46.429Z,1.80
2022-08-01T14:41:16.183Z,1.70
2022-08-01T14:43:43.898Z,1.92
2022-08-01T14:46:13.342Z,1.67
2022-08-01T14:48:41.464Z,1.83
2022-08-01T14:51:09.487Z,2.13
2022-08-01T14:53:37.739Z,2.15
2022-08-01T14:56:05.872Z,1.92
2022-08-01T14:58:34.350Z,1.98
2022-08-01T15:01:02.158Z,2.08
2022-08-01T15:03:29.673Z,1.70
2022-08-01T15:05:57.065Z,2.00
2022-08-01T15:08:24.508Z,1.67
2022-08-01T15:10:53.342Z,1.70
2022-08-01T15:13:21.067Z,2.03
2022-08-01T15:15:49.374Z,1.88
2022-08-01T15:18:16.970Z,1.75
2022-08-01T15:20:44.401Z,1.60
2022-08-01T15:23:11.999Z,1.80
2022-08-01T15:25:41.407Z,1.83
2022-08-01T15:28:13.423Z,1.92
2022-08-01T15:30:41.722Z,1.80
2022-08-01T15:33:09.212Z,2.10
2022-08-01T15:35:37.052Z,2.03
2022-08-01T15:38:04.412Z,2.00
2022-08-01T15:40:35.415Z,1.80
2022-08-01T15:43:08.532Z,1.98
2022-08-01T15:45:49.137Z,2.00
2022-08-01T15:48:18.509Z,2.00
2022-08-01T15:50:49.640Z,1.95
2022-08-01T15:53:19.491Z,1.88
2022-08-01T15:55:52.632Z,1.88
2022-08-01T15:58:21.790Z,1.90
2022-08-01T16:01:01.529Z,1.70
2022-08-01T16:03:29.242Z,1.90
2022-08-01T16:05:59.388Z,1.88
2022-08-01T16:08:27.481Z,1.80
2022-08-01T16:10:56.013Z,1.92
2022-08-01T16:13:24.422Z,2.17
2022-08-01T16:15:58.517Z,1.85
2022-08-01T16:18:28.539Z,1.80
2022-08-01T16:20:58.865Z,1.90
2022-08-01T16:23:27.545Z,1.70
2022-08-01T16:25:56.758Z,1.60
2022-08-01T16:28:24.958Z,1.63
2022-08-01T16:31:09.638Z,1.70
2022-08-01T16:33:54.169Z,4.50
2022-08-01T16:36:36.939Z,2.08
2022-08-01T16:39:10.680Z,1.60
2022-08-01T16:41:57.611Z,1.52
2022-08-01T16:44:35.020Z,1.85
2022-08-01T16:47:06.131Z,1.60
2022-08-01T16:49:38.217Z,1.88
2022-08-01T16:52:09.259Z,1.92
2022-08-01T16:54:40.698Z,1.40
2022-08-01T16:57:09.249Z,1.50
2022-08-01T16:59:42.161Z,1.70
2022-08-01T17:02:11.666Z,1.80
2022-08-01T17:04:42.727Z,2.22
2022-08-01T17:07:14.704Z,2.80
2022-08-01T17:09:43.678Z,2.17
2022-08-01T17:12:21.990Z,2.25
2022-08-01T17:14:53.645Z,1.80
2022-08-01T17:17:23.637Z,1.70
2022-08-01T17:19:55.119Z,2.00
2022-08-01T17:22:27.690Z,1.88
2022-08-01T17:25:00.594Z,2.00
2022-08-01T17:27:28.910Z,2.42
2022-08-01T17:29:58.518Z,2.05
2022-08-01T17:32:26.685Z,1.60
2022-08-01T17:34:54.742Z,1.63
2022-08-01T17:37:22.165Z,1.50
2022-08-01T17:39:49.613Z,1.45
2022-08-01T17:42:17.095Z,1.52
2022-08-01T17:44:46.079Z,1.50
2022-08-01T17:47:28.982Z,1.45
2022-08-01T17:50:08.896Z,1.70
2022-08-01T17:52:37.340Z,1.70
2022-08-01T17:55:06.125Z,1.55
2022-08-01T17:57:55.347Z,2.08
2022-08-01T18:00:22.715Z,2.00
2022-08-01T18:02:49.998Z,2.13
2022-08-01T18:05:17.412Z,1.80
2022-08-01T18:08:01.133Z,2.03
2022-08-01T18:12:57.258Z,1.63
2022-08-01T18:15:26.161Z,1.17
2022-08-01T18:17:54.555Z,1.60
2022-08-01T18:20:22.052Z,1.52
2022-08-01T18:22:49.479Z,1.40
2022-08-01T18:25:16.800Z,1.48
2022-08-01T18:28:21.145Z,1.50
2022-08-01T18:30:33.784Z,1.55
2022-08-01T18:33:01.109Z,2.22
2022-08-01T18:35:52.160Z,1.60
2022-08-01T18:38:17.319Z,1.73
2022-08-01T18:40:45.936Z,1.85
2022-08-01T18:43:13.322Z,1.70
2022-08-01T18:45:42.974Z,1.63
2022-08-01T18:48:11.994Z,1.50
2022-08-01T18:50:39.948Z,1.45
2022-08-01T18:53:07.458Z,1.65
2022-08-01T18:55:34.834Z,1.80
2022-08-01T18:58:02.192Z,1.65
2022-08-01T19:00:29.839Z,1.60
2022-08-01T19:02:57.229Z,1.75
2022-08-01T19:05:24.569Z,1.80
2022-08-01T19:08:04.927Z,1.92
2022-08-01T19:10:34.246Z,2.05
2022-08-01T19:13:02.284Z,1.73
2022-08-01T19:15:29.670Z,1.90
2022-08-01T19:17:57.201Z,2.10
2022-08-01T19:20:24.724Z,1.88
2022-08-01T19:22:52.147Z,2.00
2022-08-01T19:25:20.327Z,2.05
2022-08-01T19:27:50.445Z,1.95
2022-08-01T19:30:19.387Z,2.00
2022-08-01T19:32:48.998Z,2.10
2022-08-01T19:35:17.805Z,2.53
2022-08-01T19:37:50.804Z,2.25
2022-08-01T19:45:29.866Z,2.00
2022-08-01T19:47:58.074Z,2.08
2022-08-01T19:50:29.490Z,2.08
2022-08-01T19:52:58.804Z,1.80
2022-08-01T19:55:30.344Z,1.90
2022-08-01T20:00:50.125Z,2.22
2022-08-01T20:03:19.485Z,1.92
2022-08-01T20:05:47.023Z,2.00
2022-08-01T20:08:16.562Z,2.00
2022-08-01T20:10:45.807Z,3.10
2022-08-01T20:13:14.000Z,3.83
2022-08-01T20:15:44.909Z,2.80
2022-08-01T20:18:12.347Z,2.85
2022-08-01T20:20:40.769Z,2.45
2022-08-01T20:23:18.307Z,2.00
2022-08-01T20:25:52.835Z,2.25
2022-08-01T20:28:28.253Z,1.60
2022-08-01T20:31:05.603Z,1.75
2022-08-01T20:33:40.722Z,1.80
2022-08-01T20:36:11.932Z,1.80
2022-08-01T20:38:42.174Z,1.73
2022-08-01T20:41:10.611Z,1.77
2022-08-01T20:43:38.536Z,1.75
2022-08-01T20:46:06.606Z,1.80
2022-08-01T20:48:34.349Z,1.50
2022-08-01T20:51:17.798Z,1.60
2022-08-01T20:53:49.230Z,1.70
2022-08-01T20:56:59.028Z,1.80
2022-08-01T20:59:52.699Z,1.67
2022-08-01T21:02:52.775Z,1.98
2022-08-01T21:05:56.003Z,1.92
2022-08-01T21:08:49.805Z,1.70
2022-08-01T21:11:21.524Z,1.80
2022-08-01T21:13:51.229Z,1.73
2022-08-01T21:16:32.474Z,2.13
2022-08-01T21:19:22.544Z,1.90
2022-08-01T21:22:10.428Z,1.40
2022-08-01T21:24:58.880Z,2.08
2022-08-01T21:27:33.395Z,1.73
2022-08-01T21:30:08.791Z,1.77
2022-08-01T21:32:37.575Z,1.70
2022-08-01T21:35:16.006Z,2.00
2022-08-01T21:37:52.460Z,1.52
2022-08-01T21:40:24.489Z,1.42
2022-08-01T21:42:54.161Z,1.50
2022-08-01T21:45:27.243Z,1.55
2022-08-01T21:47:57.810Z,1.70
2022-08-01T21:50:26.165Z,1.70
2022-08-01T21:53:43.417Z,1.90
2022-08-01T21:56:44.616Z,1.50
2022-08-01T22:00:01.458Z,1.52
2022-08-01T22:03:11.354Z,1.55
2022-08-01T22:05:42.618Z,1.63
2022-08-01T22:08:36.108Z,1.50
2022-08-01T22:13:37.198Z,1.80
2022-08-01T22:16:07.059Z,1.50
2022-08-01T22:18:36.798Z,1.77
2022-08-01T22:21:04.491Z,1.52
2022-08-01T22:23:37.010Z,1.98
2022-08-01T22:26:09.109Z,2.03
2022-08-01T22:28:39.996Z,2.00
2022-08-01T22:31:07.536Z,1.77
2022-08-01T22:33:38.713Z,1.80
2022-08-01T22:36:07.686Z,2.17
2022-08-01T22:38:35.450Z,1.80
2022-08-01T22:41:14.578Z,2.13
2022-08-01T22:44:00.818Z,2.22
2022-08-01T22:47:10.512Z,2.00
2022-08-01T22:50:01.662Z,1.75
2022-08-01T22:52:31.189Z,2.10
2022-08-01T22:55:09.050Z,1.90
2022-08-01T22:57:50.718Z,1.70
2022-08-01T23:00:19.087Z,1.80
2022-08-01T23:02:53.495Z,1.95
2022-08-01T23:05:25.911Z,1.83
2022-08-01T23:07:56.928Z,1.52
2022-08-01T23:10:26.777Z,1.60
2022-08-01T23:12:56.019Z,1.55
2022-08-01T23:15:24.478Z,1.90
2022-08-01T23:17:52.070Z,2.70
2022-08-01T23:20:19.499Z,4.45
2022-08-01T23:22:47.945Z,4.03
2022-08-01T23:25:17.082Z,7.32
2022-08-01T23:27:51.387Z,6.53
2022-08-01T23:30:35.027Z,5.45
2022-08-01T23:33:03.145Z,4.78
2022-08-01T23:35:35.421Z,5.20
2022-08-01T23:38:10.122Z,4.18
2022-08-01T23:40:38.613Z,3.85
2022-08-01T23:43:16.733Z,3.38
2022-08-01T23:46:04.078Z,2.75
2022-08-01T23:48:35.035Z,2.72
2022-08-01T23:51:04.710Z,2.45
2022-08-01T23:53:33.928Z,2.33
2022-08-01T23:56:03.949Z,2.33
2022-08-01T23:58:32.698Z,2.15
